Time;durP1;ratioP1;P1;durP2;ratioP2;P2;SDS_P1;SDS_P2;PMS_P1;PMS_P2;Temp;Humidity;BMP_temperature;BMP_pressure;BME280_temperature;BME280_humidity;BME280_pressure;Samples;Min_cycle;Max_cycle;Signal;HPM_P1;HPM_P2
2022/05/16 00:02:24;;;;;;;7.28;2.55;;;;;;;15.00;100.00;96546.75;5029686;28;20041;-72
2022/05/16 00:04:51;;;;;;;7.43;2.80;;;;;;;15.03;100.00;96548.94;5028416;28;20033;-70
2022/05/16 00:07:20;;;;;;;6.25;2.63;;;;;;;15.00;100.00;96539.47;5026944;28;20420;-70
2022/05/16 00:09:46;;;;;;;7.53;2.70;;;;;;;14.94;100.00;96540.59;5031751;28;20044;-73
2022/05/16 00:12:14;;;;;;;6.57;2.40;;;;;;;14.91;100.00;96533.06;5026923;28;20062;-73
2022/05/16 00:14:42;;;;;;;5.22;2.40;;;;;;;14.94;100.00;96537.06;5028842;28;20060;-71
2022/05/16 00:17:07;;;;;;;6.20;2.45;;;;;;;14.95;100.00;96528.75;5027320;28;20048;-70
2022/05/16 00:19:33;;;;;;;8.80;2.55;;;;;;;14.94;100.00;96526.28;5029826;28;20033;-71
2022/05/16 00:21:59;;;;;;;7.43;2.50;;;;;;;14.86;100.00;96527.66;5028373;28;20045;-71
2022/05/16 00:24:28;;;;;;;7.53;2.80;;;;;;;14.85;100.00;96519.88;5027508;28;20464;-72
2022/05/16 00:26:58;;;;;;;8.50;2.47;;;;;;;14.90;100.00;96519.88;5027319;28;20504;-71
2022/05/16 00:29:24;;;;;;;4.70;2.08;;;;;;;14.95;100.00;96517.16;5026966;28;20300;-70
2022/05/16 00:31:50;;;;;;;7.57;2.67;;;;;;;14.97;100.00;96523.06;5027091;28;20206;-73
2022/05/16 00:34:16;;;;;;;7.88;2.63;;;;;;;14.91;100.00;96514.19;5028676;28;20061;-70
2022/05/16 00:36:43;;;;;;;8.90;2.60;;;;;;;14.86;100.00;96518.78;5030860;28;20521;-71
2022/05/16 00:39:09;;;;;;;9.23;2.40;;;;;;;14.75;100.00;96509.94;5026593;28;20087;-72
2022/05/16 00:41:35;;;;;;;7.80;2.20;;;;;;;14.77;100.00;96515.84;5029313;28;20052;-72
2022/05/16 00:44:01;;;;;;;6.15;2.40;;;;;;;14.77;100.00;96505.88;5027880;28;20049;-73
2022/05/16 00:46:32;;;;;;;7.85;2.40;;;;;;;14.85;100.00;96503.69;5027697;28;20049;-71
2022/05/16 00:48:59;;;;;;;7.38;2.25;;;;;;;14.84;100.00;96510.97;5029695;28;20052;-71
2022/05/16 00:51:32;;;;;;;6.43;2.80;;;;;;;14.86;100.00;96510.69;5027388;28;20041;-72
2022/05/16 00:54:05;;;;;;;6.32;2.38;;;;;;;14.76;100.00;96501.56;5026821;28;20041;-70
2022/05/16 00:56:32;;;;;;;5.32;2.35;;;;;;;14.77;100.00;96499.69;5028098;28;20051;-71
2022/05/16 00:58:58;;;;;;;8.23;2.50;;;;;;;14.72;100.00;96497.81;5027386;28;20112;-71
2022/05/16 01:06:55;;;;;;;8.25;2.15;;;;;;;14.65;100.00;96501.88;5028091;28;20273;-70
2022/05/16 01:09:21;;;;;;;9.00;2.75;;;;;;;14.66;100.00;96496.22;5027170;28;20913;-70
2022/05/16 01:11:46;;;;;;;6.43;2.42;;;;;;;14.72;100.00;96491.63;5029189;28;20114;-70
2022/05/16 01:14:38;;;;;;;10.13;3.60;;;;;;;14.80;100.00;96492.97;5026860;28;20447;-71
2022/05/16 01:17:03;;;;;;;8.05;2.13;;;;;;;14.83;100.00;96487.81;5029440;28;20045;-74
2022/05/16 01:19:29;;;;;;;11.02;3.00;;;;;;;14.86;100.00;96486.44;5031225;28;20110;-72
2022/05/16 01:21:59;;;;;;;6.20;2.58;;;;;;;14.88;100.00;96484.31;5002701;28;20514;-74
2022/05/16 01:24:25;;;;;;;7.97;2.50;;;;;;;14.84;100.00;96477.84;5027067;28;20464;-73
2022/05/16 01:26:52;;;;;;;6.38;2.33;;;;;;;14.79;100.00;96475.19;5028608;28;20515;-76
2022/05/16 01:29:19;;;;;;;7.50;2.70;;;;;;;14.76;100.00;96477.34;5026649;28;20041;-73
2022/05/16 01:31:45;;;;;;;6.20;2.80;;;;;;;14.71;100.00;96488.13;5024720;28;20489;-73
2022/05/16 01:34:12;;;;;;;6.07;2.40;;;;;;;14.67;100.00;96487.06;5032044;28;20037;-72
2022/05/16 01:36:38;;;;;;;6.65;2.17;;;;;;;14.66;100.00;96482.75;5026123;28;20035;-75
2022/05/16 01:39:05;;;;;;;8.93;3.13;;;;;;;14.61;100.00;96488.16;5026293;28;20052;-73
2022/05/16 01:41:30;;;;;;;10.40;2.45;;;;;;;14.58;100.00;96490.59;5024794;28;20455;-72
2022/05/16 01:44:00;;;;;;;6.47;2.33;;;;;;;14.57;100.00;96481.72;5026393;28;20037;-74
2022/05/16 01:46:30;;;;;;;6.70;2.25;;;;;;;14.56;100.00;96482.00;5026924;28;20040;-72
2022/05/16 01:48:55;;;;;;;4.45;2.20;;;;;;;14.60;100.00;96481.16;5027968;28;20029;-72
2022/05/16 01:51:21;;;;;;;8.85;2.10;;;;;;;14.64;100.00;96468.78;5028045;28;20041;-76
2022/05/16 01:53:47;;;;;;;9.70;2.75;;;;;;;14.68;100.00;96475.19;5027212;28;20037;-74
2022/05/16 01:56:13;;;;;;;6.75;2.58;;;;;;;14.74;100.00;96470.63;5026639;28;20865;-72
2022/05/16 01:58:41;;;;;;;10.38;2.50;;;;;;;14.71;100.00;96463.91;5026933;28;20047;-72
2022/05/16 02:01:08;;;;;;;8.20;2.38;;;;;;;14.71;100.00;96458.50;5024478;28;20142;-73
2022/05/16 02:03:37;;;;;;;7.22;2.30;;;;;;;14.70;100.00;96459.56;5025668;28;20045;-71
2022/05/16 02:06:03;;;;;;;7.95;2.60;;;;;;;14.62;100.00;96462.81;5026778;28;20586;-72
2022/05/16 02:08:28;;;;;;;7.47;2.47;;;;;;;14.63;100.00;96455.56;5028380;28;20047;-75
2022/05/16 02:10:54;;;;;;;8.55;2.38;;;;;;;14.69;100.00;96451.78;5026346;28;20080;-72
2022/05/16 02:13:19;;;;;;;6.13;2.45;;;;;;;14.69;100.00;96449.06;5027486;28;20492;-75
2022/05/16 02:15:45;;;;;;;9.35;2.30;;;;;;;14.72;100.00;96443.16;5026724;28;20262;-72
2022/05/16 02:18:11;;;;;;;9.50;2.60;;;;;;;14.74;100.00;96436.41;5022931;28;20315;-72
2022/05/16 02:20:38;;;;;;;6.68;2.38;;;;;;;14.80;100.00;96436.41;5027453;28;20175;-73
2022/05/16 02:25:50;;;;;;;9.60;2.53;;;;;;;14.70;100.00;96435.34;5026967;28;20069;-72
2022/05/16 02:28:18;;;;;;;4.85;1.92;;;;;;;14.72;100.00;96427.00;5025022;28;20391;-72
2022/05/16 02:30:45;;;;;;;4.82;2.20;;;;;;;14.74;100.00;96422.94;5030963;28;20072;-72
2022/05/16 02:33:12;;;;;;;10.32;2.95;;;;;;;14.77;100.00;96435.03;5028152;28;20112;-73
2022/05/16 02:35:38;;;;;;;7.85;2.22;;;;;;;14.78;100.00;96431.25;5028386;28;20159;-72
2022/05/16 02:38:05;;;;;;;8.10;2.72;;;;;;;14.76;100.00;96428.84;5027690;28;20507;-73
2022/05/16 02:40:33;;;;;;;9.80;2.50;;;;;;;14.73;100.00;96429.41;5026143;28;20508;-73
2022/05/16 02:42:59;;;;;;;6.75;2.20;;;;;;;14.73;100.00;96432.09;5027268;28;20033;-72
2022/05/16 02:45:26;;;;;;;7.45;2.35;;;;;;;14.65;100.00;96427.28;5026279;28;20063;-71
2022/05/16 02:47:51;;;;;;;8.73;2.85;;;;;;;14.65;100.00;96421.91;5026680;28;20099;-72
2022/05/16 02:50:18;;;;;;;5.90;1.98;;;;;;;14.65;100.00;96427.28;5026017;28;20562;-74
2022/05/16 02:52:44;;;;;;;6.18;2.33;;;;;;;14.56;100.00;96426.25;5027191;28;20065;-74
2022/05/16 02:55:10;;;;;;;4.60;1.98;;;;;;;14.50;100.00;96427.34;5026245;28;20145;-73
2022/05/16 02:57:36;;;;;;;7.15;2.60;;;;;;;14.45;100.00;96430.00;5025824;28;20103;-73
2022/05/16 03:00:05;;;;;;;8.48;2.05;;;;;;;14.48;100.00;96433.00;5027001;28;20045;-72
2022/05/16 03:02:30;;;;;;;7.05;2.35;;;;;;;14.45;100.00;96427.31;5025673;28;20123;-75
2022/05/16 03:04:56;;;;;;;7.47;2.13;;;;;;;14.41;100.00;96437.03;5027990;28;20149;-71
2022/05/16 03:07:22;;;;;;;6.80;2.13;;;;;;;14.29;100.00;96441.88;5027564;28;20044;-73
2022/05/16 03:09:48;;;;;;;8.63;2.08;;;;;;;14.18;100.00;96430.34;5027281;28;20048;-74
2022/05/16 03:12:13;;;;;;;6.03;2.40;;;;;;;14.08;100.00;96438.41;5025716;28;20433;-73
2022/05/16 03:14:39;;;;;;;9.93;2.58;;;;;;;14.07;100.00;96439.50;5025513;28;20045;-73
2022/05/16 03:17:05;;;;;;;5.22;2.10;;;;;;;13.99;100.00;96431.97;5030867;28;20033;-71
2022/05/16 03:19:31;;;;;;;6.10;2.10;;;;;;;13.90;100.00;96442.47;5027897;28;20052;-74
2022/05/16 03:21:57;;;;;;;6.78;2.55;;;;;;;13.82;100.00;96441.13;5029971;28;20065;-72
2022/05/16 03:24:23;;;;;;;5.53;2.63;;;;;;;13.77;100.00;96434.94;5031359;28;20158;-72
2022/05/16 03:26:48;;;;;;;12.75;2.72;;;;;;;13.81;100.00;96438.72;5032378;28;20057;-73
2022/05/16 03:29:15;;;;;;;9.68;2.38;;;;;;;13.84;100.00;96435.47;5030402;28;20069;-74
2022/05/16 03:31:42;;;;;;;6.72;2.53;;;;;;;13.84;100.00;96430.09;5028443;28;20080;-72
2022/05/16 03:34:10;;;;;;;6.65;2.17;;;;;;;13.88;100.00;96440.06;5028734;28;20044;-74
2022/05/16 03:36:36;;;;;;;6.32;2.78;;;;;;;13.89;100.00;96433.59;5030244;28;20048;-72
2022/05/16 03:41:56;;;;;;;6.28;2.10;;;;;;;13.84;100.00;96425.50;5026422;28;20052;-72
2022/05/16 03:44:21;;;;;;;5.85;2.78;;;;;;;13.74;100.00;96417.47;5028010;28;20460;-73
2022/05/16 03:46:47;;;;;;;7.40;2.60;;;;;;;13.75;100.00;96418.25;5027909;28;20033;-72
2022/05/16 03:49:13;;;;;;;7.13;2.67;;;;;;;13.76;100.00;96419.88;5028526;28;20045;-72
2022/05/16 03:51:38;;;;;;;11.23;2.25;;;;;;;13.59;100.00;96420.94;5031653;28;20044;-74
2022/05/16 03:54:04;;;;;;;11.02;2.55;;;;;;;13.47;100.00;96411.53;5029696;28;20029;-72
2022/05/16 03:56:30;;;;;;;8.80;2.90;;;;;;;13.45;100.00;96419.06;5029664;28;20454;-72
2022/05/16 03:58:57;;;;;;;8.82;2.50;;;;;;;13.46;100.00;96415.28;5030230;28;20495;-73
2022/05/16 04:01:23;;;;;;;13.18;3.38;;;;;;;13.46;100.00;96416.09;5027240;28;20044;-74
2022/05/16 04:03:49;;;;;;;8.50;2.78;;;;;;;13.53;100.00;96422.00;5031125;28;20120;-72
2022/05/16 04:06:16;;;;;;;9.50;2.70;;;;;;;13.53;100.00;96410.44;5027197;28;20087;-72
2022/05/16 04:08:43;;;;;;;6.88;2.72;;;;;;;13.51;100.00;96401.84;5029608;28;20033;-72
2022/05/16 04:11:09;;;;;;;7.93;2.42;;;;;;;13.49;100.00;96406.69;5030976;28;20063;-72
2022/05/16 04:13:36;;;;;;;8.40;2.40;;;;;;;13.60;100.00;96392.97;5028813;28;20140;-73
2022/05/16 04:16:03;;;;;;;6.22;2.35;;;;;;;13.77;100.00;96394.59;5028736;28;20037;-72
2022/05/16 04:18:29;;;;;;;9.43;2.38;;;;;;;13.83;100.00;96398.88;5029986;28;20102;-72
2022/05/16 04:20:54;;;;;;;8.10;2.33;;;;;;;13.85;100.00;96396.72;5027417;28;20045;-72
2022/05/16 04:23:20;;;;;;;7.45;3.08;;;;;;;13.97;100.00;96394.59;5028040;28;20064;-72
2022/05/16 04:25:45;;;;;;;4.97;2.33;;;;;;;14.06;100.00;96387.56;5029334;28;20060;-74
2022/05/16 04:28:11;;;;;;;5.80;2.20;;;;;;;14.14;100.00;96399.66;5029101;28;20407;-74
2022/05/16 04:30:38;;;;;;;6.88;2.38;;;;;;;14.15;100.00;96394.00;5027220;28;20041;-72
2022/05/16 04:33:05;;;;;;;7.00;2.38;;;;;;;14.31;100.00;96383.19;5030540;28;20041;-73
2022/05/16 04:35:32;;;;;;;7.05;2.15;;;;;;;14.41;100.00;96384.00;5032903;28;20091;-73
2022/05/16 04:37:57;;;;;;;4.68;2.53;;;;;;;14.49;100.00;96388.03;5029330;28;20558;-74
2022/05/16 04:40:23;;;;;;;7.97;2.72;;;;;;;14.51;100.00;96383.19;5028706;28;20592;-73
2022/05/16 04:42:49;;;;;;;6.00;2.30;;;;;;;14.57;100.00;96389.34;5027678;28;20091;-73
2022/05/16 04:45:17;;;;;;;5.40;2.40;;;;;;;14.65;100.00;96396.88;5026701;28;20039;-74
2022/05/16 04:47:44;;;;;;;6.05;2.33;;;;;;;14.62;100.00;96400.09;5027777;28;20045;-73
2022/05/16 04:50:13;;;;;;;8.05;2.65;;;;;;;14.57;100.00;96402.81;5028554;28;20043;-73
2022/05/16 04:52:38;;;;;;;8.75;2.80;;;;;;;14.52;100.00;96405.50;5027907;28;20142;-75
2022/05/16 04:55:05;;;;;;;6.65;2.45;;;;;;;14.53;100.00;96413.31;5027429;28;20041;-73
2022/05/16 04:57:30;;;;;;;9.40;2.50;;;;;;;14.58;100.00;96410.63;5025423;28;20038;-74
2022/05/16 04:59:56;;;;;;;5.93;2.67;;;;;;;14.65;100.00;96405.75;5025585;28;20500;-71
2022/05/16 05:02:21;;;;;;;8.38;2.38;;;;;;;14.70;100.00;96416.47;5024579;28;20060;-70
2022/05/16 05:04:48;;;;;;;6.78;2.10;;;;;;;14.66;100.00;96409.25;5026969;28;20037;-71
2022/05/16 05:07:16;;;;;;;7.22;2.75;;;;;;;14.73;100.00;96410.56;5027470;28;20037;-71
2022/05/16 05:15:12;;;;;;;6.15;2.35;;;;;;;15.15;100.00;96414.66;5025407;28;20114;-71
2022/05/16 05:17:38;;;;;;;7.85;2.47;;;;;;;15.33;100.00;96407.84;5028258;28;20404;-72
2022/05/16 05:20:04;;;;;;;8.75;2.63;;;;;;;15.47;100.00;96405.28;5024457;28;20064;-71
2022/05/16 05:22:30;;;;;;;7.10;2.83;;;;;;;15.61;100.00;96406.28;5025819;28;20028;-71
2022/05/16 05:24:56;;;;;;;7.68;2.42;;;;;;;15.65;100.00;96404.66;5028245;28;20548;-71
2022/05/16 05:27:21;;;;;;;6.90;2.45;;;;;;;15.62;100.00;96399.00;5026629;28;20123;-72
2022/05/16 05:29:51;;;;;;;6.57;2.33;;;;;;;15.47;100.00;96399.88;5028805;28;20474;-71
2022/05/16 05:32:16;;;;;;;6.75;2.50;;;;;;;15.48;100.00;96398.81;5027763;28;20049;-71
2022/05/16 05:34:42;;;;;;;7.03;2.65;;;;;;;15.56;100.00;96399.03;5027141;28;20056;-72
2022/05/16 05:37:07;;;;;;;6.22;2.10;;;;;;;15.64;100.00;96408.44;5025021;28;20056;-72
2022/05/16 05:39:35;;;;;;;8.63;2.60;;;;;;;15.58;100.00;96423.03;5026956;28;20087;-71
2022/05/16 05:42:01;;;;;;;4.90;2.28;;;;;;;15.56;100.00;96436.78;5027131;28;20036;-71
2022/05/16 05:44:27;;;;;;;8.20;2.90;;;;;;;15.61;100.00;96433.25;5027045;28;20068;-71
2022/05/16 05:46:52;;;;;;;6.97;2.78;;;;;;;15.62;100.00;96447.56;5027429;28;20052;-71
2022/05/16 05:49:19;;;;;;;6.82;2.60;;;;;;;15.70;100.00;96445.06;5025203;28;20051;-72
2022/05/16 05:51:44;;;;;;;5.70;2.33;;;;;;;15.80;100.00;96441.50;5027182;28;20106;-71
2022/05/16 05:54:10;;;;;;;5.90;2.47;;;;;;;16.02;100.00;96433.75;5028003;28;20049;-72
2022/05/16 05:56:35;;;;;;;8.70;2.72;;;;;;;16.29;100.00;96435.13;5027322;28;20427;-71
2022/05/16 05:59:01;;;;;;;9.55;2.97;;;;;;;16.44;100.00;96433.06;5027449;28;20119;-72
2022/05/16 06:01:26;;;;;;;8.77;2.60;;;;;;;16.67;100.00;96434.19;5024844;28;20056;-71
2022/05/16 06:03:53;;;;;;;7.72;2.50;;;;;;;16.81;100.00;96437.03;5023755;28;20041;-71
2022/05/16 06:06:18;;;;;;;8.10;2.60;;;;;;;16.91;100.00;96434.19;5026707;28;20041;-74
2022/05/16 06:08:44;;;;;;;6.97;2.83;;;;;;;16.97;100.00;96443.84;5026471;28;20061;-72
2022/05/16 06:11:10;;;;;;;5.50;2.50;;;;;;;17.01;100.00;96443.25;5027959;28;20713;-71
2022/05/16 06:13:35;;;;;;;10.43;2.78;;;;;;;16.87;100.00;96441.25;5027704;28;20044;-72
2022/05/16 06:16:01;;;;;;;6.22;2.35;;;;;;;16.70;100.00;96444.44;5026711;28;20110;-71
2022/05/16 06:18:29;;;;;;;7.45;3.15;;;;;;;16.60;100.00;96446.41;5023675;28;20217;-71
2022/05/16 06:20:54;;;;;;;6.50;2.30;;;;;;;16.43;100.00;96441.47;5026086;28;20049;-72
2022/05/16 06:23:20;;;;;;;7.45;2.80;;;;;;;16.41;100.00;96447.13;5026656;28;20039;-72
2022/05/16 06:25:46;;;;;;;8.07;2.72;;;;;;;16.37;100.00;96456.91;5027576;28;20402;-71
2022/05/16 06:28:18;;;;;;;9.38;2.45;;;;;;;16.30;100.00;96461.84;5025051;28;20456;-71
2022/05/16 06:30:50;;;;;;;8.93;2.60;;;;;;;16.34;100.00;96456.66;5024193;28;20294;-73
2022/05/16 06:33:21;;;;;;;12.82;2.90;;;;;;;16.26;100.00;96455.38;5024757;28;20049;-71
2022/05/16 06:35:48;;;;;;;8.57;2.83;;;;;;;16.14;100.00;96468.47;5026763;28;20045;-72
2022/05/16 06:38:17;;;;;;;8.65;2.53;;;;;;;16.11;100.00;96464.44;5026274;28;20507;-71
2022/05/16 06:40:46;;;;;;;8.15;2.30;;;;;;;16.18;100.00;96480.28;5025766;28;20048;-71
2022/05/16 06:43:12;;;;;;;9.48;2.90;;;;;;;16.31;100.00;96487.75;5024065;28;20033;-71
2022/05/16 06:45:38;;;;;;;8.20;3.08;;;;;;;16.52;100.00;96490.25;5024209;28;20052;-74
2022/05/16 06:48:04;;;;;;;9.57;3.33;;;;;;;16.54;100.00;96485.38;5025158;28;20143;-74
2022/05/16 06:50:31;;;;;;;7.80;2.60;;;;;;;16.81;100.00;96501.88;5030638;28;20470;-73
2022/05/16 06:52:57;;;;;;;10.18;3.00;;;;;;;16.87;100.00;96503.41;5029784;28;20045;-71
2022/05/16 06:55:23;;;;;;;8.20;2.75;;;;;;;17.04;100.00;96502.94;5029447;28;20044;-73
2022/05/16 06:57:48;;;;;;;10.02;2.55;;;;;;;17.24;100.00;96510.81;5030213;28;20032;-72
2022/05/16 07:00:15;;;;;;;10.55;2.95;;;;;;;17.53;100.00;96516.13;5030266;28;20037;-73
2022/05/16 07:02:41;;;;;;;7.70;2.50;;;;;;;17.48;100.00;96524.31;5030079;28;20037;-71
2022/05/16 07:05:07;;;;;;;7.60;2.85;;;;;;;17.61;100.00;96519.28;5031409;28;20033;-73
2022/05/16 07:07:33;;;;;;;10.25;3.03;;;;;;;17.62;100.00;96518.19;5027143;28;20512;-73
2022/05/16 07:09:59;;;;;;;7.03;2.55;;;;;;;17.63;99.71;96522.50;5031079;28;20140;-73
2022/05/16 07:12:25;;;;;;;7.50;2.70;;;;;;;17.62;99.15;96523.59;5036830;28;20036;-71
2022/05/16 07:14:51;;;;;;;6.68;2.38;;;;;;;17.55;99.11;96526.66;5029767;28;20029;-71
2022/05/16 07:17:17;;;;;;;9.40;2.78;;;;;;;17.52;98.61;96524.56;5030294;28;20079;-72
2022/05/16 07:19:43;;;;;;;8.85;2.85;;;;;;;17.46;100.00;96523.81;5031953;28;20369;-74
2022/05/16 07:22:11;;;;;;;8.27;2.80;;;;;;;17.17;100.00;96526.59;5032019;28;20052;-74
2022/05/16 07:24:39;;;;;;;8.80;2.92;;;;;;;17.15;100.00;96519.88;5029176;28;20048;-71
2022/05/16 07:29:50;;;;;;;5.60;2.33;;;;;;;17.15;100.00;96515.25;5031769;28;20116;-73
2022/05/16 07:32:15;;;;;;;7.93;2.63;;;;;;;17.26;100.00;96521.34;5029138;28;20072;-71
2022/05/16 07:34:41;;;;;;;7.82;2.50;;;;;;;17.31;100.00;96512.38;5031133;28;20323;-73
2022/05/16 07:37:07;;;;;;;9.05;2.60;;;;;;;17.34;100.00;96501.78;5025902;28;20052;-74
2022/05/16 07:39:35;;;;;;;10.70;2.70;;;;;;;17.42;99.79;96511.13;4998219;28;20049;-72
2022/05/16 07:42:06;;;;;;;8.15;2.80;;;;;;;17.64;98.07;96505.97;5028862;28;20045;-74
2022/05/16 07:44:33;;;;;;;8.73;2.50;;;;;;;17.94;97.52;96504.75;5027729;28;20037;-72
2022/05/16 07:46:59;;;;;;;7.70;2.88;;;;;;;18.42;95.01;96509.94;5030317;28;20079;-74
2022/05/16 07:49:25;;;;;;;6.25;2.35;;;;;;;18.67;91.57;96507.91;5029500;28;20033;-71
2022/05/16 07:51:50;;;;;;;7.93;2.70;;;;;;;18.71;90.94;96509.72;5028865;28;20029;-71
2022/05/16 07:54:16;;;;;;;7.95;2.72;;;;;;;18.81;92.40;96508.72;5032591;28;20068;-72
2022/05/16 07:56:41;;;;;;;14.35;2.67;;;;;;;18.74;92.47;96508.31;5030225;28;20076;-71
2022/05/16 07:59:09;;;;;;;7.47;2.83;;;;;;;18.83;92.37;96509.22;5028037;28;20045;-74
2022/05/16 08:01:36;;;;;;;10.93;3.28;;;;;;;18.86;93.08;96516.78;5028850;28;20046;-71
2022/05/16 08:04:06;;;;;;;9.88;2.88;;;;;;;18.59;93.67;96515.59;5028086;28;20120;-72
2022/05/16 08:06:33;;;;;;;9.93;3.00;;;;;;;18.53;94.69;96514.09;5031114;28;20041;-72
2022/05/16 08:11:43;;;;;;;8.63;2.47;;;;;;;18.09;98.47;96518.06;5030426;28;20943;-74
2022/05/16 08:14:09;;;;;;;11.27;3.10;;;;;;;18.26;98.75;96516.72;5031630;28;20330;-72
2022/05/16 08:16:34;;;;;;;7.82;2.88;;;;;;;18.26;98.50;96511.28;5029048;28;20116;-72
2022/05/16 08:19:00;;;;;;;9.98;3.40;;;;;;;18.42;98.31;96515.34;5028600;28;20099;-71
2022/05/16 08:21:25;;;;;;;7.55;2.60;;;;;;;18.52;96.90;96515.19;5025727;28;20524;-74
2022/05/16 08:23:51;;;;;;;6.68;3.00;;;;;;;18.45;96.92;96525.63;5026438;28;20496;-71
2022/05/16 08:26:17;;;;;;;7.00;2.70;;;;;;;18.66;98.59;96523.38;5026765;28;20122;-71
2022/05/16 08:28:42;;;;;;;7.47;2.60;;;;;;;18.85;96.32;96517.88;5029577;28;20063;-73
2022/05/16 08:31:08;;;;;;;6.20;2.58;;;;;;;18.90;95.99;96525.91;5028360;28;20049;-73
2022/05/16 08:33:36;;;;;;;11.18;3.20;;;;;;;18.81;96.00;96530.41;5027868;28;20101;-73
2022/05/16 08:41:36;;;;;;;6.22;2.90;;;;;;;19.25;97.50;96532.56;5029853;28;20041;-71
2022/05/16 08:44:13;;;;;;;12.45;3.10;;;;;;;19.36;97.73;96530.44;5031076;28;20044;-71
2022/05/16 08:47:13;;;;;;;6.93;2.78;;;;;;;19.44;98.49;96540.56;5027335;28;20069;-71
2022/05/16 08:49:46;;;;;;;12.40;3.28;;;;;;;19.70;94.14;96543.59;5026249;28;20040;-73
2022/05/16 08:52:50;;;;;;;7.45;3.50;;;;;;;19.47;95.28;96550.84;5029614;28;20053;-73
2022/05/16 08:55:23;;;;;;;6.80;2.83;;;;;;;19.29;96.84;96549.81;5027171;28;20123;-71
2022/05/16 08:57:57;;;;;;;8.45;3.25;;;;;;;19.53;96.36;96549.59;5027388;28;20539;-72
2022/05/16 09:00:35;;;;;;;11.77;2.97;;;;;;;19.41;96.43;96535.75;5028726;28;20102;-72
2022/05/16 09:03:08;;;;;;;9.63;3.42;;;;;;;19.74;95.35;96541.88;5045565;28;20431;-73
2022/05/16 09:05:41;;;;;;;9.05;2.88;;;;;;;19.69;96.27;96548.22;5046112;28;20041;-74
2022/05/16 09:08:13;;;;;;;8.00;2.80;;;;;;;19.89;96.51;96554.31;5046479;28;20087;-74
2022/05/16 09:10:59;;;;;;;12.82;3.35;;;;;;;19.92;95.35;96545.53;5051428;28;20037;-73
2022/05/16 09:13:49;;;;;;;10.35;3.25;;;;;;;20.19;95.17;96542.75;5045426;28;20033;-72
2022/05/16 09:16:38;;;;;;;16.23;3.63;;;;;;;20.43;95.14;96544.34;5061060;28;20040;-72
2022/05/16 09:19:17;;;;;;;7.18;3.33;;;;;;;20.57;94.19;96535.06;5047362;28;20045;-73
2022/05/16 09:21:51;;;;;;;8.32;3.10;;;;;;;20.69;96.34;96537.19;5045649;28;20462;-73
2022/05/16 09:24:28;;;;;;;13.30;3.22;;;;;;;20.81;94.36;96532.00;5045562;28;20041;-74
2022/05/16 09:27:09;;;;;;;11.18;3.30;;;;;;;20.79;90.12;96536.94;5045929;28;20048;-72
2022/05/16 09:29:42;;;;;;;7.18;2.83;;;;;;;21.00;90.60;96537.19;5045648;28;20083;-72
2022/05/16 09:32:35;;;;;;;10.40;3.13;;;;;;;20.93;91.89;96530.59;5046937;28;20107;-74
2022/05/16 09:35:01;;;;;;;9.25;2.53;;;;;;;21.05;91.34;96549.88;5051531;28;20059;-72
2022/05/16 09:37:26;;;;;;;8.13;2.90;;;;;;;21.29;90.50;96536.69;5046932;28;20041;-72
2022/05/16 09:39:53;;;;;;;12.63;2.83;;;;;;;21.39;89.48;96535.59;5046218;28;20119;-71
2022/05/16 09:42:21;;;;;;;13.70;3.05;;;;;;;21.76;90.86;96536.97;5046155;28;20051;-72
2022/05/16 09:44:56;;;;;;;8.70;2.80;;;;;;;22.01;89.19;96540.03;5042816;28;20037;-72
2022/05/16 09:47:34;;;;;;;7.63;2.45;;;;;;;22.07;85.68;96536.03;5045506;28;20044;-74
2022/05/16 09:50:02;;;;;;;10.77;2.88;;;;;;;22.29;85.65;96532.41;5046096;28;20423;-73
2022/05/16 09:52:30;;;;;;;8.75;2.60;;;;;;;22.45;84.93;96542.47;5046050;28;20540;-72
2022/05/16 09:55:10;;;;;;;12.95;2.58;;;;;;;22.68;85.97;96534.09;5046634;28;20910;-73
2022/05/16 09:57:47;;;;;;;6.13;2.65;;;;;;;22.95;81.12;96533.72;5045425;28;20155;-74
2022/05/16 10:00:16;;;;;;;10.75;3.20;;;;;;;23.01;78.37;96532.41;5044225;28;20052;-72
2022/05/16 10:02:42;;;;;;;13.63;2.80;;;;;;;23.18;79.59;96539.72;5047469;28;20041;-72
2022/05/16 10:05:19;;;;;;;7.18;2.25;;;;;;;23.29;75.96;96532.00;5046709;28;20055;-72
2022/05/16 10:07:49;;;;;;;6.35;2.25;;;;;;;23.43;74.67;96532.56;5051873;28;20767;-75
2022/05/16 10:10:25;;;;;;;6.53;2.50;;;;;;;23.58;72.35;96533.94;5044610;28;20036;-72
2022/05/16 10:12:53;;;;;;;7.85;2.38;;;;;;;23.61;73.20;96542.28;5045384;28;20145;-72
2022/05/16 10:15:19;;;;;;;6.57;2.50;;;;;;;23.79;74.38;96529.31;5037006;28;20036;-72
2022/05/16 10:17:47;;;;;;;7.10;2.53;;;;;;;24.09;75.09;96538.28;5046338;28;20069;-71
2022/05/16 10:20:20;;;;;;;11.93;2.60;;;;;;;24.10;67.08;96531.66;5045196;28;20041;-73
2022/05/16 10:22:46;;;;;;;7.88;2.60;;;;;;;24.23;68.09;96537.22;5046907;28;20051;-73
2022/05/16 10:25:20;;;;;;;7.90;2.55;;;;;;;24.40;66.90;96532.41;5045217;28;20068;-74
2022/05/16 10:27:48;;;;;;;6.40;2.20;;;;;;;24.63;67.60;96530.09;5047762;28;20103;-72
2022/05/16 10:30:22;;;;;;;7.88;2.80;;;;;;;24.60;64.17;96533.53;5043657;28;20076;-72
2022/05/16 10:35:47;;;;;;;6.57;2.17;;;;;;;25.01;60.64;96540.00;5045553;28;20089;-71
2022/05/16 10:38:43;;;;;;;9.05;2.67;;;;;;;25.31;56.44;96540.66;5045431;28;20829;-72
2022/05/16 10:41:18;;;;;;;10.23;2.65;;;;;;;25.70;56.40;96543.84;5046005;28;20252;-72
2022/05/16 10:43:57;;;;;;;6.32;2.45;;;;;;;26.00;51.89;96541.66;5045923;28;20036;-72
2022/05/16 10:46:36;;;;;;;6.92;2.49;;;;;;;26.50;49.86;96543.91;4679331;28;10000513;-75
2022/05/16 10:49:11;;;;;;;6.10;1.90;;;;;;;26.83;47.99;96543.66;5044471;28;20257;-72
2022/05/16 10:51:57;;;;;;;12.60;2.63;;;;;;;27.13;48.88;96535.03;5042741;28;20036;-74
2022/05/16 10:54:29;;;;;;;7.00;2.60;;;;;;;26.95;47.87;96540.06;5046927;28;20127;-72
2022/05/16 10:57:06;;;;;;;14.38;2.50;;;;;;;27.47;45.86;96539.84;5046032;28;20052;-73
2022/05/16 11:00:09;;;;;;;7.68;2.53;;;;;;;28.16;42.15;96539.44;5042538;28;20146;-72
2022/05/16 11:02:56;;;;;;;5.65;2.05;;;;;;;26.01;47.52;96537.78;5043221;28;20049;-72
2022/05/16 11:05:29;;;;;;;5.03;2.30;;;;;;;26.16;49.68;96539.00;5043089;28;20095;-72
2022/05/16 11:08:06;;;;;;;6.57;2.13;;;;;;;26.10;49.23;96535.69;5043838;28;20061;-72
2022/05/16 11:10:36;;;;;;;8.40;2.20;;;;;;;25.75;47.73;96540.88;5042284;28;20443;-72
2022/05/16 11:13:22;;;;;;;6.93;2.00;;;;;;;25.63;47.75;96538.94;5041704;28;20396;-71
2022/05/16 11:15:53;;;;;;;6.80;2.38;;;;;;;26.26;48.38;96539.28;5045968;28;20036;-74
2022/05/16 11:18:42;;;;;;;4.93;2.13;;;;;;;28.04;41.15;96530.16;5040758;28;20093;-73
2022/05/16 11:21:26;;;;;;;6.85;2.08;;;;;;;29.65;37.15;96525.75;5042467;28;20071;-72
2022/05/16 11:24:07;;;;;;;9.73;2.20;;;;;;;31.72;33.58;96507.97;5044837;28;20110;-72
2022/05/16 11:26:42;;;;;;;7.10;2.40;;;;;;;30.73;35.22;96511.44;5042823;28;20045;-72
2022/05/16 11:29:32;;;;;;;6.28;2.15;;;;;;;32.83;29.64;96515.66;5040757;28;20067;-75
2022/05/16 11:31:58;;;;;;;5.15;1.67;;;;;;;33.87;27.82;96499.91;5043246;28;20061;-73
2022/05/16 11:34:43;;;;;;;6.40;1.85;;;;;;;32.88;28.94;96495.13;5042789;28;20047;-72
2022/05/16 11:37:21;;;;;;;3.92;1.60;;;;;;;36.59;23.60;96484.91;5047761;28;20130;-72
2022/05/16 11:40:25;;;;;;;5.75;2.25;;;;;;;38.76;21.95;96478.38;5047063;28;20037;-72
2022/05/16 11:43:03;;;;;;;6.07;1.90;;;;;;;41.28;21.12;96472.78;5023812;28;20056;-73
2022/05/16 11:45:40;;;;;;;8.48;2.15;;;;;;;42.68;19.54;96486.41;5049194;28;20036;-73
2022/05/16 11:48:25;;;;;;;4.93;1.80;;;;;;;37.12;23.20;96494.50;5049549;28;20037;-72
2022/05/16 11:51:20;;;;;;;5.05;2.35;;;;;;;32.13;29.15;96508.63;5047219;28;20044;-73
2022/05/16 11:53:53;;;;;;;7.10;2.35;;;;;;;29.28;34.45;96497.97;5033707;28;20044;-72
2022/05/16 12:02:42;;;;;;;5.45;2.20;;;;;;;25.25;54.67;96520.91;5046347;28;20474;-74
2022/05/16 12:05:12;;;;;;;8.48;2.90;;;;;;;25.20;59.04;96515.63;5042975;28;20056;-71
2022/05/16 12:07:46;;;;;;;10.40;2.72;;;;;;;25.20;57.99;96512.91;5047630;28;20079;-72
2022/05/16 12:10:14;;;;;;;8.93;3.33;;;;;;;24.31;73.46;96518.00;5046395;28;20040;-72
2022/05/16 12:12:43;;;;;;;9.48;3.00;;;;;;;23.97;89.33;96535.50;5044618;28;20063;-75
2022/05/16 12:15:20;;;;;;;16.42;3.08;;;;;;;23.29;96.98;96542.91;5044037;28;20044;-72